sensor_id;sensor_type;location;lat;lon;timestamp;P1;durP1;ratioP1;P2;durP2;ratioP2
8938;SDS011;4504;48.810;9.172;2023-07-20T06:25:25;119.77;;;3.70;;
8938;SDS011;4504;48.810;9.172;2023-07-20T06:27:54;118.60;;;3.60;;
8938;SDS011;4504;48.810;9.172;2023-07-20T06:30:22;116.47;;;3.10;;
8938;SDS011;4504;48.810;9.172;2023-07-20T06:32:49;114.93;;;3.23;;
8938;SDS011;4504;48.810;9.172;2023-07-20T06:35:17;119.40;;;3.90;;
8938;SDS011;4504;48.810;9.172;2023-07-20T06:37:44;116.97;;;3.60;;
8938;SDS011;4504;48.810;9.172;2023-07-20T06:40:11;120.67;;;3.40;;
8938;SDS011;4504;48.810;9.172;2023-07-20T06:42:40;115.60;;;3.27;;
8938;SDS011;4504;48.810;9.172;2023-07-20T06:45:07;115.97;;;3.60;;
8938;SDS011;4504;48.810;9.172;2023-07-20T06:47:35;118.17;;;3.83;;
8938;SDS011;4504;48.810;9.172;2023-07-20T06:50:04;115.47;;;3.77;;
8938;SDS011;4504;48.810;9.172;2023-07-20T06:52:32;120.10;;;3.73;;
8938;SDS011;4504;48.810;9.172;2023-07-20T06:54:59;114.97;;;3.47;;
8938;SDS011;4504;48.810;9.172;2023-07-20T06:57:26;117.80;;;3.20;;
8938;SDS011;4504;48.810;9.172;2023-07-20T06:59:54;115.53;;;3.00;;
8938;SDS011;4504;48.810;9.172;2023-07-20T07:02:21;114.10;;;3.03;;
8938;SDS011;4504;48.810;9.172;2023-07-20T07:04:48;115.57;;;3.00;;
8938;SDS011;4504;48.810;9.172;2023-07-20T07:07:15;114.70;;;3.70;;
8938;SDS011;4504;48.810;9.172;2023-07-20T07:09:42;115.27;;;3.40;;
8938;SDS011;4504;48.810;9.172;2023-07-20T07:12:09;114.07;;;3.00;;
8938;SDS011;4504;48.810;9.172;2023-07-20T07:14:36;117.77;;;3.13;;
8938;SDS011;4504;48.810;9.172;2023-07-20T07:17:05;115.10;;;3.23;;
8938;SDS011;4504;48.810;9.172;2023-07-20T07:19:32;114.50;;;2.87;;
8938;SDS011;4504;48.810;9.172;2023-07-20T07:21:59;113.97;;;3.00;;
8938;SDS011;4504;48.810;9.172;2023-07-20T07:24:26;114.43;;;3.07;;
8938;SDS011;4504;48.810;9.172;2023-07-20T07:26:58;112.50;;;2.90;;
8938;SDS011;4504;48.810;9.172;2023-07-20T07:29:26;112.10;;;3.10;;
8938;SDS011;4504;48.810;9.172;2023-07-20T07:31:53;115.90;;;3.43;;
8938;SDS011;4504;48.810;9.172;2023-07-20T07:34:21;114.67;;;3.43;;
8938;SDS011;4504;48.810;9.172;2023-07-20T07:36:48;114.67;;;3.30;;
8938;SDS011;4504;48.810;9.172;2023-07-20T07:39:16;115.20;;;3.73;;
8938;SDS011;4504;48.810;9.172;2023-07-20T07:41:43;113.67;;;2.90;;
8938;SDS011;4504;48.810;9.172;2023-07-20T07:44:10;115.23;;;3.27;;
8938;SDS011;4504;48.810;9.172;2023-07-20T07:46:37;114.40;;;3.60;;
8938;SDS011;4504;48.810;9.172;2023-07-20T07:49:04;116.67;;;3.00;;
8938;SDS011;4504;48.810;9.172;2023-07-20T07:51:33;113.77;;;3.50;;
8938;SDS011;4504;48.810;9.172;2023-07-20T07:54:00;112.47;;;2.83;;
8938;SDS011;4504;48.810;9.172;2023-07-20T07:56:27;114.43;;;3.77;;
8938;SDS011;4504;48.810;9.172;2023-07-20T07:58:54;114.90;;;3.20;;
8938;SDS011;4504;48.810;9.172;2023-07-20T08:01:21;113.83;;;3.40;;
8938;SDS011;4504;48.810;9.172;2023-07-20T08:03:48;113.20;;;3.00;;
8938;SDS011;4504;48.810;9.172;2023-07-20T08:06:15;114.97;;;3.63;;
8938;SDS011;4504;48.810;9.172;2023-07-20T08:08:43;112.57;;;2.83;;
8938;SDS011;4504;48.810;9.172;2023-07-20T08:11:10;113.40;;;3.47;;
8938;SDS011;4504;48.810;9.172;2023-07-20T08:13:37;113.77;;;3.10;;
8938;SDS011;4504;48.810;9.172;2023-07-20T08:16:04;112.67;;;2.80;;
8938;SDS011;4504;48.810;9.172;2023-07-20T08:18:31;115.40;;;3.27;;
8938;SDS011;4504;48.810;9.172;2023-07-20T08:20:58;113.97;;;3.27;;
8938;SDS011;4504;48.810;9.172;2023-07-20T08:23:25;111.17;;;2.80;;
8938;SDS011;4504;48.810;9.172;2023-07-20T08:25:54;113.43;;;3.17;;
8938;SDS011;4504;48.810;9.172;2023-07-20T08:28:21;111.80;;;2.90;;
8938;SDS011;4504;48.810;9.172;2023-07-20T08:30:48;112.17;;;2.80;;
8938;SDS011;4504;48.810;9.172;2023-07-20T08:33:16;114.00;;;3.30;;
8938;SDS011;4504;48.810;9.172;2023-07-20T08:35:44;112.27;;;2.80;;
8938;SDS011;4504;48.810;9.172;2023-07-20T08:38:12;117.40;;;3.13;;
8938;SDS011;4504;48.810;9.172;2023-07-20T08:40:40;111.00;;;2.80;;
8938;SDS011;4504;48.810;9.172;2023-07-20T08:43:09;112.43;;;2.60;;
8938;SDS011;4504;48.810;9.172;2023-07-20T08:45:38;111.93;;;3.30;;
8938;SDS011;4504;48.810;9.172;2023-07-20T08:48:06;112.33;;;3.00;;
8938;SDS011;4504;48.810;9.172;2023-07-20T08:50:34;111.33;;;3.10;;
8938;SDS011;4504;48.810;9.172;2023-07-20T08:53:02;116.83;;;3.10;;
8938;SDS011;4504;48.810;9.172;2023-07-20T08:55:29;111.93;;;3.00;;
8938;SDS011;4504;48.810;9.172;2023-07-20T08:57:57;112.50;;;2.93;;
8938;SDS011;4504;48.810;9.172;2023-07-20T09:00:26;110.87;;;3.00;;
8938;SDS011;4504;48.810;9.172;2023-07-20T09:02:54;113.87;;;3.13;;
8938;SDS011;4504;48.810;9.172;2023-07-20T09:05:22;112.33;;;2.90;;
8938;SDS011;4504;48.810;9.172;2023-07-20T09:07:51;112.47;;;3.00;;
8938;SDS011;4504;48.810;9.172;2023-07-20T09:10:18;114.00;;;3.30;;
8938;SDS011;4504;48.810;9.172;2023-07-20T09:12:47;112.80;;;3.27;;
8938;SDS011;4504;48.810;9.172;2023-07-20T09:15:14;114.07;;;3.00;;
8938;SDS011;4504;48.810;9.172;2023-07-20T09:17:46;111.03;;;2.97;;
8938;SDS011;4504;48.810;9.172;2023-07-20T09:20:14;114.90;;;2.70;;
8938;SDS011;4504;48.810;9.172;2023-07-20T09:22:42;111.30;;;2.80;;
8938;SDS011;4504;48.810;9.172;2023-07-20T09:25:10;114.47;;;2.90;;
8938;SDS011;4504;48.810;9.172;2023-07-20T09:27:38;111.20;;;2.57;;
8938;SDS011;4504;48.810;9.172;2023-07-20T09:30:06;111.50;;;2.67;;
8938;SDS011;4504;48.810;9.172;2023-07-20T09:32:40;114.60;;;3.20;;
8938;SDS011;4504;48.810;9.172;2023-07-20T09:35:13;111.70;;;2.70;;
8938;SDS011;4504;48.810;9.172;2023-07-20T09:37:45;111.27;;;2.50;;
8938;SDS011;4504;48.810;9.172;2023-07-20T09:40:14;111.37;;;3.03;;
8938;SDS011;4504;48.810;9.172;2023-07-20T09:42:43;116.70;;;2.70;;
8938;SDS011;4504;48.810;9.172;2023-07-20T09:45:10;110.00;;;2.50;;
8938;SDS011;4504;48.810;9.172;2023-07-20T09:47:38;111.77;;;2.77;;
8938;SDS011;4504;48.810;9.172;2023-07-20T09:50:06;111.47;;;2.43;;
8938;SDS011;4504;48.810;9.172;2023-07-20T09:52:38;110.80;;;2.73;;
8938;SDS011;4504;48.810;9.172;2023-07-20T09:55:07;117.17;;;3.03;;
8938;SDS011;4504;48.810;9.172;2023-07-20T09:57:35;111.60;;;2.93;;
8938;SDS011;4504;48.810;9.172;2023-07-20T10:00:03;113.00;;;3.03;;
8938;SDS011;4504;48.810;9.172;2023-07-20T10:02:36;113.30;;;3.20;;
8938;SDS011;4504;48.810;9.172;2023-07-20T10:05:08;111.07;;;3.00;;
8938;SDS011;4504;48.810;9.172;2023-07-20T10:07:40;111.67;;;2.90;;
8938;SDS011;4504;48.810;9.172;2023-07-20T10:10:10;110.90;;;2.70;;
8938;SDS011;4504;48.810;9.172;2023-07-20T10:12:37;110.70;;;2.80;;
8938;SDS011;4504;48.810;9.172;2023-07-20T10:15:10;110.40;;;2.77;;
8938;SDS011;4504;48.810;9.172;2023-07-20T10:17:40;109.67;;;2.87;;
8938;SDS011;4504;48.810;9.172;2023-07-20T10:20:16;110.00;;;2.87;;
8938;SDS011;4504;48.810;9.172;2023-07-20T10:22:47;112.17;;;2.57;;
8938;SDS011;4504;48.810;9.172;2023-07-20T10:25:19;110.10;;;2.57;;
8938;SDS011;4504;48.810;9.172;2023-07-20T10:27:48;110.30;;;2.60;;
8938;SDS011;4504;48.810;9.172;2023-07-20T10:30:16;110.23;;;2.50;;
8938;SDS011;4504;48.810;9.172;2023-07-20T10:32:45;109.53;;;2.50;;
8938;SDS011;4504;48.810;9.172;2023-07-20T10:35:13;110.40;;;2.20;;
8938;SDS011;4504;48.810;9.172;2023-07-20T10:37:52;109.90;;;2.50;;
8938;SDS011;4504;48.810;9.172;2023-07-20T10:40:29;108.33;;;2.20;;
8938;SDS011;4504;48.810;9.172;2023-07-20T10:42:58;110.17;;;2.40;;
8938;SDS011;4504;48.810;9.172;2023-07-20T10:45:33;110.23;;;2.57;;
8938;SDS011;4504;48.810;9.172;2023-07-20T10:48:08;108.67;;;2.30;;
8938;SDS011;4504;48.810;9.172;2023-07-20T10:50:40;109.57;;;2.77;;
8938;SDS011;4504;48.810;9.172;2023-07-20T10:53:13;110.10;;;2.37;;
8938;SDS011;4504;48.810;9.172;2023-07-20T10:55:41;110.40;;;2.50;;
8938;SDS011;4504;48.810;9.172;2023-07-20T10:58:09;109.30;;;2.20;;
8938;SDS011;4504;48.810;9.172;2023-07-20T11:00:38;109.60;;;2.60;;
8938;SDS011;4504;48.810;9.172;2023-07-20T11:03:29;110.30;;;2.57;;
8938;SDS011;4504;48.810;9.172;2023-07-20T11:05:57;109.50;;;2.10;;
8938;SDS011;4504;48.810;9.172;2023-07-20T11:11:20;108.97;;;2.37;;
8938;SDS011;4504;48.810;9.172;2023-07-20T11:13:58;107.87;;;2.40;;
8938;SDS011;4504;48.810;9.172;2023-07-20T11:16:36;107.77;;;2.00;;
8938;SDS011;4504;48.810;9.172;2023-07-20T11:19:06;109.53;;;2.10;;
8938;SDS011;4504;48.810;9.172;2023-07-20T11:21:41;108.40;;;2.00;;
8938;SDS011;4504;48.810;9.172;2023-07-20T11:24:11;107.90;;;2.10;;
8938;SDS011;4504;48.810;9.172;2023-07-20T11:26:42;106.87;;;2.20;;
8938;SDS011;4504;48.810;9.172;2023-07-20T11:29:10;107.67;;;2.00;;
8938;SDS011;4504;48.810;9.172;2023-07-20T11:31:38;110.47;;;2.20;;
8938;SDS011;4504;48.810;9.172;2023-07-20T11:34:06;108.47;;;2.20;;
8938;SDS011;4504;48.810;9.172;2023-07-20T11:36:36;110.77;;;2.67;;
8938;SDS011;4504;48.810;9.172;2023-07-20T11:39:04;108.27;;;2.13;;
8938;SDS011;4504;48.810;9.172;2023-07-20T11:41:35;108.27;;;2.17;;
8938;SDS011;4504;48.810;9.172;2023-07-20T11:44:03;107.70;;;2.20;;
8938;SDS011;4504;48.810;9.172;2023-07-20T11:46:31;107.43;;;2.30;;
8938;SDS011;4504;48.810;9.172;2023-07-20T11:48:59;108.80;;;2.30;;
8938;SDS011;4504;48.810;9.172;2023-07-20T11:51:29;110.40;;;2.03;;
8938;SDS011;4504;48.810;9.172;2023-07-20T11:53:57;106.43;;;2.33;;
8938;SDS011;4504;48.810;9.172;2023-07-20T11:56:25;106.37;;;2.20;;
8938;SDS011;4504;48.810;9.172;2023-07-20T11:58:58;106.47;;;2.47;;
8938;SDS011;4504;48.810;9.172;2023-07-20T12:01:27;106.70;;;2.00;;
8938;SDS011;4504;48.810;9.172;2023-07-20T12:03:57;106.03;;;1.90;;
8938;SDS011;4504;48.810;9.172;2023-07-20T12:06:25;106.50;;;1.80;;
8938;SDS011;4504;48.810;9.172;2023-07-20T12:08:54;106.17;;;1.90;;
8938;SDS011;4504;48.810;9.172;2023-07-20T12:11:35;109.37;;;2.03;;
8938;SDS011;4504;48.810;9.172;2023-07-20T12:14:06;105.40;;;1.90;;
8938;SDS011;4504;48.810;9.172;2023-07-20T12:16:34;106.30;;;1.90;;
8938;SDS011;4504;48.810;9.172;2023-07-20T12:19:04;105.77;;;1.87;;
8938;SDS011;4504;48.810;9.172;2023-07-20T12:21:33;105.37;;;1.77;;
8938;SDS011;4504;48.810;9.172;2023-07-20T12:24:02;105.37;;;2.27;;
8938;SDS011;4504;48.810;9.172;2023-07-20T12:26:30;103.70;;;1.70;;
8938;SDS011;4504;48.810;9.172;2023-07-20T12:28:58;104.70;;;1.70;;
8938;SDS011;4504;48.810;9.172;2023-07-20T12:31:26;105.93;;;1.87;;
8938;SDS011;4504;48.810;9.172;2023-07-20T12:33:56;105.27;;;2.00;;
8938;SDS011;4504;48.810;9.172;2023-07-20T12:36:23;105.00;;;1.90;;
8938;SDS011;4504;48.810;9.172;2023-07-20T12:38:51;104.97;;;1.90;;
8938;SDS011;4504;48.810;9.172;2023-07-20T12:41:18;105.83;;;1.87;;
8938;SDS011;4504;48.810;9.172;2023-07-20T12:43:45;103.70;;;1.70;;
8938;SDS011;4504;48.810;9.172;2023-07-20T12:46:12;104.70;;;2.10;;
8938;SDS011;4504;48.810;9.172;2023-07-20T12:48:41;108.40;;;1.97;;
8938;SDS011;4504;48.810;9.172;2023-07-20T12:51:09;104.30;;;1.80;;
8938;SDS011;4504;48.810;9.172;2023-07-20T12:53:37;104.87;;;1.80;;
8938;SDS011;4504;48.810;9.172;2023-07-20T12:56:04;103.97;;;1.67;;
8938;SDS011;4504;48.810;9.172;2023-07-20T12:58:31;103.07;;;1.67;;
8938;SDS011;4504;48.810;9.172;2023-07-20T13:00:58;103.30;;;1.70;;
8938;SDS011;4504;48.810;9.172;2023-07-20T13:03:25;103.77;;;2.27;;
8938;SDS011;4504;48.810;9.172;2023-07-20T13:05:54;105.40;;;1.83;;
8938;SDS011;4504;48.810;9.172;2023-07-20T13:08:21;105.20;;;2.30;;
8938;SDS011;4504;48.810;9.172;2023-07-20T13:10:50;103.60;;;1.80;;
8938;SDS011;4504;48.810;9.172;2023-07-20T13:13:18;104.23;;;2.07;;
8938;SDS011;4504;48.810;9.172;2023-07-20T13:15:45;105.17;;;1.80;;
8938;SDS011;4504;48.810;9.172;2023-07-20T13:18:13;105.37;;;2.17;;
8938;SDS011;4504;48.810;9.172;2023-07-20T13:20:40;105.27;;;2.07;;
8938;SDS011;4504;48.810;9.172;2023-07-20T13:23:08;103.50;;;1.60;;
8938;SDS011;4504;48.810;9.172;2023-07-20T13:25:35;104.27;;;1.80;;
8938;SDS011;4504;48.810;9.172;2023-07-20T13:28:04;103.20;;;1.70;;
8938;SDS011;4504;48.810;9.172;2023-07-20T13:30:32;103.93;;;2.00;;
8938;SDS011;4504;48.810;9.172;2023-07-20T13:32:59;102.47;;;1.70;;
8938;SDS011;4504;48.810;9.172;2023-07-20T13:35:26;106.20;;;1.70;;
8938;SDS011;4504;48.810;9.172;2023-07-20T13:37:53;102.37;;;1.73;;
8938;SDS011;4504;48.810;9.172;2023-07-20T13:40:21;103.30;;;1.90;;
8938;SDS011;4504;48.810;9.172;2023-07-20T13:42:49;103.57;;;1.87;;
8938;SDS011;4504;48.810;9.172;2023-07-20T13:45:16;104.27;;;1.80;;
8938;SDS011;4504;48.810;9.172;2023-07-20T13:47:44;102.80;;;1.70;;
8938;SDS011;4504;48.810;9.172;2023-07-20T13:50:11;103.63;;;1.70;;
8938;SDS011;4504;48.810;9.172;2023-07-20T13:52:38;104.40;;;1.90;;
8938;SDS011;4504;48.810;9.172;2023-07-20T13:55:06;101.60;;;1.73;;
8938;SDS011;4504;48.810;9.172;2023-07-20T13:57:35;101.30;;;1.70;;
8938;SDS011;4504;48.810;9.172;2023-07-20T14:00:02;102.87;;;1.80;;
8938;SDS011;4504;48.810;9.172;2023-07-20T14:02:37;102.00;;;1.70;;
8938;SDS011;4504;48.810;9.172;2023-07-20T14:05:04;102.40;;;1.80;;
8938;SDS011;4504;48.810;9.172;2023-07-20T14:07:32;105.50;;;1.83;;
8938;SDS011;4504;48.810;9.172;2023-07-20T14:09:59;101.37;;;1.40;;
8938;SDS011;4504;48.810;9.172;2023-07-20T14:12:26;103.97;;;1.77;;
8938;SDS011;4504;48.810;9.172;2023-07-20T14:14:55;101.13;;;1.80;;
8938;SDS011;4504;48.810;9.172;2023-07-20T14:17:22;100.67;;;1.47;;
8938;SDS011;4504;48.810;9.172;2023-07-20T14:19:50;100.63;;;1.50;;
8938;SDS011;4504;48.810;9.172;2023-07-20T14:22:19;101.20;;;1.50;;
8938;SDS011;4504;48.810;9.172;2023-07-20T14:24:46;102.10;;;1.80;;
8938;SDS011;4504;48.810;9.172;2023-07-20T14:27:13;101.47;;;1.57;;
8938;SDS011;4504;48.810;9.172;2023-07-20T14:29:40;100.57;;;1.50;;
8938;SDS011;4504;48.810;9.172;2023-07-20T14:32:09;101.60;;;1.33;;
8938;SDS011;4504;48.810;9.172;2023-07-20T14:34:36;102.50;;;1.60;;
8938;SDS011;4504;48.810;9.172;2023-07-20T14:37:03;101.57;;;1.67;;
8938;SDS011;4504;48.810;9.172;2023-07-20T14:39:31;101.97;;;1.80;;
8938;SDS011;4504;48.810;9.172;2023-07-20T14:41:58;100.20;;;1.67;;
8938;SDS011;4504;48.810;9.172;2023-07-20T14:44:25;100.60;;;1.70;;
8938;SDS011;4504;48.810;9.172;2023-07-20T14:46:52;101.17;;;1.57;;
8938;SDS011;4504;48.810;9.172;2023-07-20T14:49:20;99.73;;;1.40;;
8938;SDS011;4504;48.810;9.172;2023-07-20T14:51:48;103.40;;;1.50;;
8938;SDS011;4504;48.810;9.172;2023-07-20T14:54:15;98.90;;;1.50;;
8938;SDS011;4504;48.810;9.172;2023-07-20T14:56:48;101.37;;;1.80;;
8938;SDS011;4504;48.810;9.172;2023-07-20T14:59:17;107.77;;;1.60;;
8938;SDS011;4504;48.810;9.172;2023-07-20T15:01:44;99.63;;;1.40;;
8938;SDS011;4504;48.810;9.172;2023-07-20T15:04:12;100.60;;;1.50;;
8938;SDS011;4504;48.810;9.172;2023-07-20T15:06:41;102.73;;;1.47;;
8938;SDS011;4504;48.810;9.172;2023-07-20T15:09:08;102.13;;;1.50;;
8938;SDS011;4504;48.810;9.172;2023-07-20T15:11:35;101.33;;;1.40;;
8938;SDS011;4504;48.810;9.172;2023-07-20T15:14:03;102.47;;;1.83;;
8938;SDS011;4504;48.810;9.172;2023-07-20T15:16:30;101.07;;;1.70;;
8938;SDS011;4504;48.810;9.172;2023-07-20T15:18:57;101.50;;;1.70;;
8938;SDS011;4504;48.810;9.172;2023-07-20T15:21:24;101.90;;;1.40;;
8938;SDS011;4504;48.810;9.172;2023-07-20T15:23:57;102.27;;;1.70;;
8938;SDS011;4504;48.810;9.172;2023-07-20T15:26:24;102.67;;;1.60;;
8938;SDS011;4504;48.810;9.172;2023-07-20T15:28:51;101.30;;;1.67;;
8938;SDS011;4504;48.810;9.172;2023-07-20T15:31:18;101.47;;;1.57;;
8938;SDS011;4504;48.810;9.172;2023-07-20T15:33:46;102.40;;;1.70;;
8938;SDS011;4504;48.810;9.172;2023-07-20T15:36:13;100.47;;;1.40;;
8938;SDS011;4504;48.810;9.172;2023-07-20T15:38:40;100.50;;;1.50;;
8938;SDS011;4504;48.810;9.172;2023-07-20T15:41:08;104.00;;;1.40;;
8938;SDS011;4504;48.810;9.172;2023-07-20T15:43:35;100.80;;;1.40;;
8938;SDS011;4504;48.810;9.172;2023-07-20T15:46:10;101.53;;;1.60;;
8938;SDS011;4504;48.810;9.172;2023-07-20T15:49:10;101.97;;;1.77;;
8938;SDS011;4504;48.810;9.172;2023-07-20T15:51:37;101.27;;;1.70;;
8938;SDS011;4504;48.810;9.172;2023-07-20T15:54:07;100.67;;;1.50;;
8938;SDS011;4504;48.810;9.172;2023-07-20T15:56:37;101.30;;;1.67;;
8938;SDS011;4504;48.810;9.172;2023-07-20T15:59:06;102.60;;;1.70;;
8938;SDS011;4504;48.810;9.172;2023-07-20T16:01:35;102.07;;;1.50;;
8938;SDS011;4504;48.810;9.172;2023-07-20T16:04:02;103.70;;;1.60;;
8938;SDS011;4504;48.810;9.172;2023-07-20T16:06:30;102.80;;;1.90;;
8938;SDS011;4504;48.810;9.172;2023-07-20T16:08:58;103.73;;;1.77;;
8938;SDS011;4504;48.810;9.172;2023-07-20T16:11:25;104.00;;;1.90;;
8938;SDS011;4504;48.810;9.172;2023-07-20T16:13:54;102.87;;;1.80;;
8938;SDS011;4504;48.810;9.172;2023-07-20T16:16:21;103.00;;;1.87;;
8938;SDS011;4504;48.810;9.172;2023-07-20T16:18:48;103.80;;;1.60;;
8938;SDS011;4504;48.810;9.172;2023-07-20T16:21:15;103.60;;;1.70;;
8938;SDS011;4504;48.810;9.172;2023-07-20T16:23:43;103.67;;;1.80;;
8938;SDS011;4504;48.810;9.172;2023-07-20T16:26:11;105.17;;;1.90;;
8938;SDS011;4504;48.810;9.172;2023-07-20T16:28:39;106.17;;;1.70;;
8938;SDS011;4504;48.810;9.172;2023-07-20T16:31:10;103.40;;;1.80;;
8938;SDS011;4504;48.810;9.172;2023-07-20T16:33:37;104.40;;;1.83;;
8938;SDS011;4504;48.810;9.172;2023-07-20T16:36:07;105.07;;;1.93;;
8938;SDS011;4504;48.810;9.172;2023-07-20T16:38:35;104.20;;;1.93;;
8938;SDS011;4504;48.810;9.172;2023-07-20T16:41:03;105.30;;;1.80;;
8938;SDS011;4504;48.810;9.172;2023-07-20T16:43:33;104.97;;;1.90;;
8938;SDS011;4504;48.810;9.172;2023-07-20T16:46:21;105.03;;;2.00;;
8938;SDS011;4504;48.810;9.172;2023-07-20T16:48:47;104.90;;;2.00;;
8938;SDS011;4504;48.810;9.172;2023-07-20T16:51:14;105.30;;;1.80;;
8938;SDS011;4504;48.810;9.172;2023-07-20T16:53:41;104.27;;;1.83;;
8938;SDS011;4504;48.810;9.172;2023-07-20T16:56:09;105.10;;;1.83;;
8938;SDS011;4504;48.810;9.172;2023-07-20T16:58:37;104.57;;;2.10;;
8938;SDS011;4504;48.810;9.172;2023-07-20T17:01:04;104.87;;;2.20;;
8938;SDS011;4504;48.810;9.172;2023-07-20T17:03:33;104.40;;;1.93;;
8938;SDS011;4504;48.810;9.172;2023-07-20T17:06:02;106.37;;;2.13;;
8938;SDS011;4504;48.810;9.172;2023-07-20T17:08:30;105.50;;;1.80;;
8938;SDS011;4504;48.810;9.172;2023-07-20T17:10:57;106.37;;;1.83;;
8938;SDS011;4504;48.810;9.172;2023-07-20T17:13:26;106.47;;;1.83;;
8938;SDS011;4504;48.810;9.172;2023-07-20T17:15:53;107.40;;;2.10;;
8938;SDS011;4504;48.810;9.172;2023-07-20T17:18:20;105.10;;;1.70;;
8938;SDS011;4504;48.810;9.172;2023-07-20T17:20:48;106.00;;;2.03;;
8938;SDS011;4504;48.810;9.172;2023-07-20T17:23:16;105.47;;;1.93;;
8938;SDS011;4504;48.810;9.172;2023-07-20T17:25:43;107.27;;;2.27;;
8938;SDS011;4504;48.810;9.172;2023-07-20T17:28:11;105.47;;;1.90;;
8938;SDS011;4504;48.810;9.172;2023-07-20T17:30:38;106.97;;;2.00;;
8938;SDS011;4504;48.810;9.172;2023-07-20T17:33:05;106.20;;;1.97;;
8938;SDS011;4504;48.810;9.172;2023-07-20T17:35:34;109.03;;;2.10;;
8938;SDS011;4504;48.810;9.172;2023-07-20T17:38:02;106.33;;;2.00;;
8938;SDS011;4504;48.810;9.172;2023-07-20T17:40:29;108.27;;;2.13;;
8938;SDS011;4504;48.810;9.172;2023-07-20T17:42:56;110.67;;;2.17;;
8938;SDS011;4504;48.810;9.172;2023-07-20T17:45:23;106.33;;;1.90;;
8938;SDS011;4504;48.810;9.172;2023-07-20T17:47:50;106.57;;;2.10;;
8938;SDS011;4504;48.810;9.172;2023-07-20T17:50:17;106.97;;;2.20;;
8938;SDS011;4504;48.810;9.172;2023-07-20T17:52:44;106.13;;;2.00;;
8938;SDS011;4504;48.810;9.172;2023-07-20T17:55:13;106.17;;;1.90;;
8938;SDS011;4504;48.810;9.172;2023-07-20T17:57:40;107.30;;;2.10;;
8938;SDS011;4504;48.810;9.172;2023-07-20T18:00:07;107.30;;;2.17;;
8938;SDS011;4504;48.810;9.172;2023-07-20T18:02:37;106.80;;;2.13;;
8938;SDS011;4504;48.810;9.172;2023-07-20T18:05:04;106.40;;;2.10;;
8938;SDS011;4504;48.810;9.172;2023-07-20T18:07:32;109.97;;;2.17;;
8938;SDS011;4504;48.810;9.172;2023-07-20T18:09:59;106.80;;;2.00;;
8938;SDS011;4504;48.810;9.172;2023-07-20T18:12:30;107.30;;;1.93;;
8938;SDS011;4504;48.810;9.172;2023-07-20T18:14:57;110.17;;;2.13;;
8938;SDS011;4504;48.810;9.172;2023-07-20T18:17:24;107.47;;;2.17;;
8938;SDS011;4504;48.810;9.172;2023-07-20T18:19:51;107.30;;;2.03;;
8938;SDS011;4504;48.810;9.172;2023-07-20T18:22:18;106.07;;;2.10;;
8938;SDS011;4504;48.810;9.172;2023-07-20T18:24:45;107.40;;;1.97;;
8938;SDS011;4504;48.810;9.172;2023-07-20T18:27:12;107.07;;;1.97;;
8938;SDS011;4504;48.810;9.172;2023-07-20T18:29:40;107.60;;;1.90;;
8938;SDS011;4504;48.810;9.172;2023-07-20T18:32:07;107.90;;;2.03;;
8938;SDS011;4504;48.810;9.172;2023-07-20T18:34:35;107.67;;;2.27;;
8938;SDS011;4504;48.810;9.172;2023-07-20T18:37:02;107.40;;;2.40;;
8938;SDS011;4504;48.810;9.172;2023-07-20T18:39:30;108.00;;;2.33;;
8938;SDS011;4504;48.810;9.172;2023-07-20T18:41:57;107.40;;;2.37;;
8938;SDS011;4504;48.810;9.172;2023-07-20T18:44:24;107.67;;;1.93;;
8938;SDS011;4504;48.810;9.172;2023-07-20T18:46:54;108.17;;;2.30;;
8938;SDS011;4504;48.810;9.172;2023-07-20T18:49:21;106.30;;;2.10;;
8938;SDS011;4504;48.810;9.172;2023-07-20T18:51:51;106.17;;;1.77;;
8938;SDS011;4504;48.810;9.172;2023-07-20T18:54:18;106.80;;;2.13;;
8938;SDS011;4504;48.810;9.172;2023-07-20T18:56:45;106.00;;;2.10;;
8938;SDS011;4504;48.810;9.172;2023-07-20T18:59:12;111.30;;;2.10;;
8938;SDS011;4504;48.810;9.172;2023-07-20T19:01:39;106.50;;;1.90;;
8938;SDS011;4504;48.810;9.172;2023-07-20T19:04:08;108.60;;;2.17;;
8938;SDS011;4504;48.810;9.172;2023-07-20T19:06:35;109.63;;;2.50;;
8938;SDS011;4504;48.810;9.172;2023-07-20T19:09:02;106.07;;;1.87;;
8938;SDS011;4504;48.810;9.172;2023-07-20T19:11:29;106.20;;;1.93;;
8938;SDS011;4504;48.810;9.172;2023-07-20T19:13:56;105.47;;;1.97;;
8938;SDS011;4504;48.810;9.172;2023-07-20T19:16:23;107.87;;;2.20;;
8938;SDS011;4504;48.810;9.172;2023-07-20T19:18:52;106.77;;;1.90;;
8938;SDS011;4504;48.810;9.172;2023-07-20T19:21:23;108.30;;;2.10;;
8938;SDS011;4504;48.810;9.172;2023-07-20T19:23:50;106.80;;;2.10;;
8938;SDS011;4504;48.810;9.172;2023-07-20T19:26:17;108.60;;;2.47;;
8938;SDS011;4504;48.810;9.172;2023-07-20T19:28:44;107.50;;;2.27;;
8938;SDS011;4504;48.810;9.172;2023-07-20T19:31:11;108.37;;;2.30;;
8938;SDS011;4504;48.810;9.172;2023-07-20T19:33:38;107.70;;;2.73;;
8938;SDS011;4504;48.810;9.172;2023-07-20T19:36:06;107.17;;;2.20;;
8938;SDS011;4504;48.810;9.172;2023-07-20T19:38:34;108.07;;;1.93;;
8938;SDS011;4504;48.810;9.172;2023-07-20T19:41:01;108.40;;;2.03;;
8938;SDS011;4504;48.810;9.172;2023-07-20T19:43:30;109.37;;;2.50;;
8938;SDS011;4504;48.810;9.172;2023-07-20T19:45:57;108.77;;;2.30;;
8938;SDS011;4504;48.810;9.172;2023-07-20T19:48:24;110.57;;;2.40;;
8938;SDS011;4504;48.810;9.172;2023-07-20T19:50:52;109.47;;;2.27;;
8938;SDS011;4504;48.810;9.172;2023-07-20T19:53:20;109.80;;;3.23;;
8938;SDS011;4504;48.810;9.172;2023-07-20T19:55:49;110.37;;;2.30;;
8938;SDS011;4504;48.810;9.172;2023-07-20T19:58:16;110.20;;;2.60;;
8938;SDS011;4504;48.810;9.172;2023-07-20T20:00:43;110.37;;;2.47;;
8938;SDS011;4504;48.810;9.172;2023-07-20T20:03:10;107.77;;;2.40;;
8938;SDS011;4504;48.810;9.172;2023-07-20T20:05:38;111.60;;;2.50;;
8938;SDS011;4504;48.810;9.172;2023-07-20T20:08:05;109.77;;;2.40;;
8938;SDS011;4504;48.810;9.172;2023-07-20T20:10:32;110.70;;;2.40;;
8938;SDS011;4504;48.810;9.172;2023-07-20T20:13:02;110.30;;;2.40;;
8938;SDS011;4504;48.810;9.172;2023-07-20T20:15:30;109.90;;;2.40;;
8938;SDS011;4504;48.810;9.172;2023-07-20T20:17:57;113.30;;;2.97;;
8938;SDS011;4504;48.810;9.172;2023-07-20T20:20:30;110.13;;;2.60;;
8938;SDS011;4504;48.810;9.172;2023-07-20T20:22:58;110.87;;;2.60;;
8938;SDS011;4504;48.810;9.172;2023-07-20T20:25:25;110.40;;;2.40;;
8938;SDS011;4504;48.810;9.172;2023-07-20T20:27:53;109.97;;;2.43;;
8938;SDS011;4504;48.810;9.172;2023-07-20T20:30:22;110.13;;;2.67;;
8938;SDS011;4504;48.810;9.172;2023-07-20T20:32:49;109.90;;;2.63;;
8938;SDS011;4504;48.810;9.172;2023-07-20T20:35:16;109.57;;;2.70;;
8938;SDS011;4504;48.810;9.172;2023-07-20T20:37:44;111.13;;;2.77;;
8938;SDS011;4504;48.810;9.172;2023-07-20T20:40:11;109.53;;;2.30;;
8938;SDS011;4504;48.810;9.172;2023-07-20T20:42:39;110.87;;;2.60;;
8938;SDS011;4504;48.810;9.172;2023-07-20T20:45:07;110.13;;;2.30;;
8938;SDS011;4504;48.810;9.172;2023-07-20T20:47:37;110.40;;;2.40;;
8938;SDS011;4504;48.810;9.172;2023-07-20T20:50:05;110.30;;;2.53;;
8938;SDS011;4504;48.810;9.172;2023-07-20T20:52:34;109.30;;;2.50;;
8938;SDS011;4504;48.810;9.172;2023-07-20T20:55:01;111.87;;;2.87;;
8938;SDS011;4504;48.810;9.172;2023-07-20T20:57:29;112.37;;;2.93;;
8938;SDS011;4504;48.810;9.172;2023-07-20T20:59:56;111.67;;;2.57;;
8938;SDS011;4504;48.810;9.172;2023-07-20T21:02:24;112.17;;;2.87;;
8938;SDS011;4504;48.810;9.172;2023-07-20T21:04:52;111.13;;;2.97;;
8938;SDS011;4504;48.810;9.172;2023-07-20T21:07:19;116.00;;;2.83;;
8938;SDS011;4504;48.810;9.172;2023-07-20T21:09:46;111.30;;;2.77;;
8938;SDS011;4504;48.810;9.172;2023-07-20T21:12:13;111.00;;;3.00;;
8938;SDS011;4504;48.810;9.172;2023-07-20T21:14:40;110.60;;;2.50;;
8938;SDS011;4504;48.810;9.172;2023-07-20T21:17:08;111.17;;;2.83;;
8938;SDS011;4504;48.810;9.172;2023-07-20T21:19:34;111.40;;;2.77;;
8938;SDS011;4504;48.810;9.172;2023-07-20T21:22:03;110.33;;;2.67;;